Nikolski, AK (99638)

9:25 PM HADT on September 18, 2014 (GMT -0900)
Dutch Harbor | Change Station
CLOSE
Current Station
Airport
Location: Dutch Harbor,
Elevation: 13 ft
Nearby Weather Stations

Elev 13 ft 53.90 °N, 166.54 °W | Updated 29 minutes ago

Overcast
Overcast
49 °F
Feels Like 49 °F
N
9
Wind Variable Wind from West

Today
High -- | Low -- °F
--% Chance of Precip.
Yesterday
High -- | Low -- °F
Precip. -- in
7:58 AM 8:26 PM
Waning Crescent, 21% visible
Pressure 29.55 in
Visibility 9.0 miles
Clouds Overcast 1800 ft
Dew Point 44 °F
Humidity 83%
Rainfall 0.00 in
Snow Depth 1 in , 0 in , 0 in
UV 0 out of 12
Pollen Not available.
Air Quality Not available.
Flu Activity Not available.
METAR PADU 190556Z AUTO 27008KT 9SM OVC018 09/07 A2953 RMK AO2 SLP006 T00940067 10106 20089 52010

More Conditions Fewer Conditions

Pressure 29.55 in
Visibility 9.0 miles
Clouds Overcast 1800 ft
Dew Point 44 °F
Humidity 83%
Rainfall 0.00 in
Snow Depth 1 in , 0 in , 0 in
UV 0 out of 12
Pollen Not available.
Air Quality Not available.
Flu Activity Not available.
METAR PADU 190556Z AUTO 27008KT 9SM OVC018 09/07 A2953 RMK AO2 SLP006 T00940067 10106 20089 52010

More Conditions Fewer Conditions

10-Day Weather Forecast

Almanac

Astronomy

Sep. 18, 2014 Rise Set
Actual Time 7:58 AM HADT 8:26 PM HADT
Civil Twilight 7:24 AM HADT 9:01 PM HADT
Nautical Twilight 6:43 AM HADT 9:42 PM HADT
Astronomical Twilight 5:59 AM HADT 10:25 PM HADT
Moon 2:31 AM HADT (9/18) 5:54 PM HADT (9/18)
Length of Visible Light 13h 36m
Length of Day
12h 27m
Tomorrow will be 4m 6s shorter.
Waning Crescent, 21% of the Moon is Illuminated
Sep 19
Waning Crescent
Sep 24
New
Oct 1
First Quarter
Oct 8
Full
Oct 15
Last Quarter

Yesterday's Extremes

State Highs State Lows

Community

WunderPhotos

Upload Photos

1,754,575 photos uploaded!

Nearby

Snow Depth

Station Depth Elevation
Eagle Summit 1 in 3650 ft
Port Graham 0 in 300 ft
Coldfoot 0 in 1040 ft
Rocky Point 6 in 500 ft
Grandview 0 in 1100 ft

Earthquake Activity

City Distance Mag. Time & Date
No recent earthquake activity has been reported nearby.
Minimum magnitude displayed is 2.5.

Coastal Water Temperatures

Place Temperature
No Stations Reporting

Nearby Weather Stations